Haaren, Netherlands
Current Conditions -  °F | °C
As of 11:55 AM on Friday 28 Nov 2014 (Local Time) from EHGR Reporting Station
Haze Haze  
Wind Chill: 41°   Ceiling: 7800
Heat Index: 46°   Visibility: 6mi
Dew Point: 43°   Wind: 13mph
Humidity: 87%   Direction: 100°E
Pressure: 29.74"   Gusts: NA
Location:  51.6°N, 5.22°E
Report Text: EHGR 281055Z AUTO 10011KT 9000 BR BKN078 BKN083 BKN094 08/06 Q1007 BLU 10012KT 7000 BR BKN060
Loading
Personal Weather Stations






























Interactive Weather Map New forecast layout! Learn more

10-Day Weather Forecast

Advertisements
Track Severe Weather on mobile